sensor_id;sensor_type;location;lat;lon;timestamp;P1;durP1;ratioP1;P2;durP2;ratioP2
41512;SDS011;27244;59.940;30.280;2023-05-08T00:01:28;3.55;;;1.95;;
41512;SDS011;27244;59.940;30.280;2023-05-08T00:03:56;2.70;;;1.80;;
41512;SDS011;27244;59.940;30.280;2023-05-08T00:06:23;2.80;;;1.85;;
41512;SDS011;27244;59.940;30.280;2023-05-08T00:08:51;2.58;;;1.70;;
41512;SDS011;27244;59.940;30.280;2023-05-08T00:11:20;3.78;;;2.00;;
41512;SDS011;27244;59.940;30.280;2023-05-08T00:13:47;4.38;;;1.80;;
41512;SDS011;27244;59.940;30.280;2023-05-08T00:16:14;3.22;;;2.33;;
41512;SDS011;27244;59.940;30.280;2023-05-08T00:18:41;4.32;;;1.92;;
41512;SDS011;27244;59.940;30.280;2023-05-08T00:21:08;2.88;;;1.83;;
41512;SDS011;27244;59.940;30.280;2023-05-08T00:23:35;4.63;;;1.77;;
41512;SDS011;27244;59.940;30.280;2023-05-08T00:26:02;3.85;;;1.90;;
41512;SDS011;27244;59.940;30.280;2023-05-08T00:28:31;3.38;;;1.67;;
41512;SDS011;27244;59.940;30.280;2023-05-08T00:30:58;2.25;;;1.73;;
41512;SDS011;27244;59.940;30.280;2023-05-08T00:33:26;3.90;;;2.13;;
41512;SDS011;27244;59.940;30.280;2023-05-08T00:35:57;6.45;;;2.28;;
41512;SDS011;27244;59.940;30.280;2023-05-08T00:38:25;4.50;;;1.90;;
41512;SDS011;27244;59.940;30.280;2023-05-08T00:40:51;5.53;;;2.38;;
41512;SDS011;27244;59.940;30.280;2023-05-08T00:43:19;3.85;;;1.90;;
41512;SDS011;27244;59.940;30.280;2023-05-08T00:45:51;3.40;;;2.08;;
41512;SDS011;27244;59.940;30.280;2023-05-08T00:48:18;6.65;;;2.15;;
41512;SDS011;27244;59.940;30.280;2023-05-08T00:50:47;5.88;;;2.33;;
41512;SDS011;27244;59.940;30.280;2023-05-08T00:53:15;4.25;;;2.28;;
41512;SDS011;27244;59.940;30.280;2023-05-08T00:55:43;3.28;;;2.00;;
41512;SDS011;27244;59.940;30.280;2023-05-08T00:58:10;3.50;;;1.73;;
41512;SDS011;27244;59.940;30.280;2023-05-08T01:00:39;5.57;;;1.90;;
41512;SDS011;27244;59.940;30.280;2023-05-08T01:03:09;4.20;;;2.42;;
41512;SDS011;27244;59.940;30.280;2023-05-08T01:05:37;4.85;;;1.88;;
41512;SDS011;27244;59.940;30.280;2023-05-08T01:08:04;3.05;;;1.90;;
41512;SDS011;27244;59.940;30.280;2023-05-08T01:10:32;3.08;;;1.65;;
41512;SDS011;27244;59.940;30.280;2023-05-08T01:13:09;9.30;;;2.00;;
41512;SDS011;27244;59.940;30.280;2023-05-08T01:15:42;3.60;;;1.88;;
41512;SDS011;27244;59.940;30.280;2023-05-08T01:18:18;3.50;;;1.90;;
41512;SDS011;27244;59.940;30.280;2023-05-08T01:20:52;5.43;;;1.77;;
41512;SDS011;27244;59.940;30.280;2023-05-08T01:33:00;4.10;;;1.63;;
41512;SDS011;27244;59.940;30.280;2023-05-08T01:35:35;2.38;;;1.58;;
41512;SDS011;27244;59.940;30.280;2023-05-08T01:38:07;3.28;;;1.70;;
41512;SDS011;27244;59.940;30.280;2023-05-08T01:40:43;2.83;;;1.83;;
41512;SDS011;27244;59.940;30.280;2023-05-08T01:43:19;3.75;;;1.63;;
41512;SDS011;27244;59.940;30.280;2023-05-08T01:45:51;4.10;;;2.17;;
41512;SDS011;27244;59.940;30.280;2023-05-08T01:48:21;3.25;;;1.77;;
41512;SDS011;27244;59.940;30.280;2023-05-08T01:50:54;4.55;;;1.80;;
41512;SDS011;27244;59.940;30.280;2023-05-08T01:53:27;5.18;;;1.85;;
41512;SDS011;27244;59.940;30.280;2023-05-08T01:55:56;3.38;;;1.88;;
41512;SDS011;27244;59.940;30.280;2023-05-08T01:58:26;2.53;;;1.80;;
41512;SDS011;27244;59.940;30.280;2023-05-08T02:00:54;4.45;;;2.33;;
41512;SDS011;27244;59.940;30.280;2023-05-08T02:03:25;2.83;;;1.90;;
41512;SDS011;27244;59.940;30.280;2023-05-08T02:05:54;5.35;;;1.85;;
41512;SDS011;27244;59.940;30.280;2023-05-08T02:08:23;4.07;;;1.75;;
41512;SDS011;27244;59.940;30.280;2023-05-08T02:10:51;4.40;;;2.15;;
41512;SDS011;27244;59.940;30.280;2023-05-08T02:13:21;5.20;;;2.55;;
41512;SDS011;27244;59.940;30.280;2023-05-08T02:15:50;3.35;;;1.70;;
41512;SDS011;27244;59.940;30.280;2023-05-08T02:18:20;5.28;;;2.35;;
41512;SDS011;27244;59.940;30.280;2023-05-08T02:20:50;3.50;;;2.13;;
41512;SDS011;27244;59.940;30.280;2023-05-08T02:23:18;5.32;;;2.00;;
41512;SDS011;27244;59.940;30.280;2023-05-08T02:25:47;3.03;;;1.88;;
41512;SDS011;27244;59.940;30.280;2023-05-08T02:28:16;5.35;;;2.00;;
41512;SDS011;27244;59.940;30.280;2023-05-08T02:30:44;3.58;;;2.00;;
41512;SDS011;27244;59.940;30.280;2023-05-08T02:33:12;3.08;;;1.83;;
41512;SDS011;27244;59.940;30.280;2023-05-08T02:35:42;3.75;;;1.92;;
41512;SDS011;27244;59.940;30.280;2023-05-08T02:38:12;3.53;;;2.20;;
41512;SDS011;27244;59.940;30.280;2023-05-08T02:40:43;3.47;;;2.10;;
41512;SDS011;27244;59.940;30.280;2023-05-08T02:45:42;3.53;;;2.00;;
41512;SDS011;27244;59.940;30.280;2023-05-08T02:48:15;5.05;;;2.10;;
41512;SDS011;27244;59.940;30.280;2023-05-08T02:50:51;5.68;;;1.80;;
41512;SDS011;27244;59.940;30.280;2023-05-08T02:53:27;3.55;;;1.90;;
41512;SDS011;27244;59.940;30.280;2023-05-08T02:56:02;3.15;;;1.90;;
41512;SDS011;27244;59.940;30.280;2023-05-08T02:58:36;3.30;;;1.83;;
41512;SDS011;27244;59.940;30.280;2023-05-08T03:01:10;3.90;;;2.15;;
41512;SDS011;27244;59.940;30.280;2023-05-08T03:03:44;3.30;;;2.20;;
41512;SDS011;27244;59.940;30.280;2023-05-08T03:06:17;4.32;;;2.05;;
41512;SDS011;27244;59.940;30.280;2023-05-08T03:08:49;4.97;;;2.03;;
41512;SDS011;27244;59.940;30.280;2023-05-08T03:11:18;2.67;;;1.60;;
41512;SDS011;27244;59.940;30.280;2023-05-08T03:13:49;8.38;;;3.33;;
41512;SDS011;27244;59.940;30.280;2023-05-08T03:16:22;3.95;;;1.80;;
41512;SDS011;27244;59.940;30.280;2023-05-08T03:18:51;3.42;;;1.70;;
41512;SDS011;27244;59.940;30.280;2023-05-08T03:21:20;4.35;;;1.67;;
41512;SDS011;27244;59.940;30.280;2023-05-08T03:23:52;3.67;;;1.90;;
41512;SDS011;27244;59.940;30.280;2023-05-08T03:26:21;4.53;;;1.95;;
41512;SDS011;27244;59.940;30.280;2023-05-08T03:28:49;2.90;;;1.70;;
41512;SDS011;27244;59.940;30.280;2023-05-08T03:31:20;3.03;;;1.85;;
41512;SDS011;27244;59.940;30.280;2023-05-08T03:33:49;4.05;;;2.10;;
41512;SDS011;27244;59.940;30.280;2023-05-08T03:36:19;3.57;;;1.57;;
41512;SDS011;27244;59.940;30.280;2023-05-08T03:38:49;4.57;;;1.77;;
41512;SDS011;27244;59.940;30.280;2023-05-08T03:41:18;5.32;;;1.90;;
41512;SDS011;27244;59.940;30.280;2023-05-08T03:43:46;2.20;;;1.55;;
41512;SDS011;27244;59.940;30.280;2023-05-08T03:46:13;2.63;;;1.60;;
41512;SDS011;27244;59.940;30.280;2023-05-08T03:48:43;3.05;;;1.85;;
41512;SDS011;27244;59.940;30.280;2023-05-08T03:51:13;5.07;;;1.70;;
41512;SDS011;27244;59.940;30.280;2023-05-08T03:53:41;4.00;;;1.70;;
41512;SDS011;27244;59.940;30.280;2023-05-08T03:56:08;3.90;;;2.05;;
41512;SDS011;27244;59.940;30.280;2023-05-08T03:58:37;3.92;;;1.88;;
41512;SDS011;27244;59.940;30.280;2023-05-08T04:01:11;2.90;;;1.52;;
41512;SDS011;27244;59.940;30.280;2023-05-08T04:03:48;4.90;;;1.60;;
41512;SDS011;27244;59.940;30.280;2023-05-08T04:06:22;2.40;;;1.40;;
41512;SDS011;27244;59.940;30.280;2023-05-08T04:09:00;3.03;;;1.75;;
41512;SDS011;27244;59.940;30.280;2023-05-08T04:11:30;2.20;;;1.55;;
41512;SDS011;27244;59.940;30.280;2023-05-08T04:16:34;2.38;;;1.60;;
41512;SDS011;27244;59.940;30.280;2023-05-08T04:19:08;2.72;;;1.40;;
41512;SDS011;27244;59.940;30.280;2023-05-08T04:21:38;3.57;;;1.50;;
41512;SDS011;27244;59.940;30.280;2023-05-08T04:24:09;3.22;;;1.60;;
41512;SDS011;27244;59.940;30.280;2023-05-08T04:26:40;2.70;;;1.40;;
41512;SDS011;27244;59.940;30.280;2023-05-08T04:29:12;2.22;;;1.38;;
41512;SDS011;27244;59.940;30.280;2023-05-08T04:31:39;2.50;;;1.40;;
41512;SDS011;27244;59.940;30.280;2023-05-08T04:34:07;2.20;;;1.50;;
41512;SDS011;27244;59.940;30.280;2023-05-08T04:36:35;3.83;;;1.40;;
41512;SDS011;27244;59.940;30.280;2023-05-08T04:39:04;2.67;;;1.52;;
41512;SDS011;27244;59.940;30.280;2023-05-08T04:41:31;2.85;;;1.20;;
41512;SDS011;27244;59.940;30.280;2023-05-08T04:44:00;3.65;;;1.48;;
41512;SDS011;27244;59.940;30.280;2023-05-08T04:46:29;3.15;;;1.33;;
41512;SDS011;27244;59.940;30.280;2023-05-08T04:48:57;2.25;;;1.20;;
41512;SDS011;27244;59.940;30.280;2023-05-08T04:51:27;2.27;;;1.63;;
41512;SDS011;27244;59.940;30.280;2023-05-08T04:53:56;2.85;;;1.50;;
41512;SDS011;27244;59.940;30.280;2023-05-08T04:56:23;2.42;;;1.27;;
41512;SDS011;27244;59.940;30.280;2023-05-08T04:58:51;2.30;;;1.40;;
41512;SDS011;27244;59.940;30.280;2023-05-08T05:01:19;3.20;;;1.50;;
41512;SDS011;27244;59.940;30.280;2023-05-08T05:03:47;2.70;;;1.40;;
41512;SDS011;27244;59.940;30.280;2023-05-08T05:06:14;2.63;;;1.10;;
41512;SDS011;27244;59.940;30.280;2023-05-08T05:08:41;2.55;;;1.30;;
41512;SDS011;27244;59.940;30.280;2023-05-08T05:11:08;4.60;;;1.67;;
41512;SDS011;27244;59.940;30.280;2023-05-08T05:13:35;4.15;;;1.27;;
41512;SDS011;27244;59.940;30.280;2023-05-08T05:16:03;3.35;;;1.00;;
41512;SDS011;27244;59.940;30.280;2023-05-08T05:18:30;4.80;;;1.45;;
41512;SDS011;27244;59.940;30.280;2023-05-08T05:20:58;2.47;;;1.23;;
41512;SDS011;27244;59.940;30.280;2023-05-08T05:23:27;2.93;;;1.30;;
41512;SDS011;27244;59.940;30.280;2023-05-08T05:25:54;3.42;;;1.58;;
41512;SDS011;27244;59.940;30.280;2023-05-08T05:28:21;3.75;;;1.27;;
41512;SDS011;27244;59.940;30.280;2023-05-08T05:30:48;3.85;;;1.27;;
41512;SDS011;27244;59.940;30.280;2023-05-08T05:33:16;4.47;;;1.50;;
41512;SDS011;27244;59.940;30.280;2023-05-08T05:35:43;4.00;;;1.45;;
41512;SDS011;27244;59.940;30.280;2023-05-08T05:38:11;4.93;;;1.40;;
41512;SDS011;27244;59.940;30.280;2023-05-08T05:40:38;4.95;;;1.73;;
41512;SDS011;27244;59.940;30.280;2023-05-08T05:43:07;5.20;;;2.00;;
41512;SDS011;27244;59.940;30.280;2023-05-08T05:45:34;3.67;;;1.70;;
41512;SDS011;27244;59.940;30.280;2023-05-08T05:48:02;5.93;;;1.40;;
41512;SDS011;27244;59.940;30.280;2023-05-08T05:50:30;5.40;;;1.45;;
41512;SDS011;27244;59.940;30.280;2023-05-08T05:52:58;4.43;;;1.25;;
41512;SDS011;27244;59.940;30.280;2023-05-08T05:55:27;5.15;;;1.60;;
41512;SDS011;27244;59.940;30.280;2023-05-08T05:57:54;1.67;;;1.17;;
41512;SDS011;27244;59.940;30.280;2023-05-08T06:00:21;2.85;;;1.20;;
41512;SDS011;27244;59.940;30.280;2023-05-08T06:02:52;2.28;;;1.20;;
41512;SDS011;27244;59.940;30.280;2023-05-08T06:05:19;1.40;;;1.13;;
41512;SDS011;27244;59.940;30.280;2023-05-08T06:07:48;1.73;;;1.10;;
41512;SDS011;27244;59.940;30.280;2023-05-08T06:10:15;3.30;;;1.20;;
41512;SDS011;27244;59.940;30.280;2023-05-08T06:12:43;3.47;;;1.33;;
41512;SDS011;27244;59.940;30.280;2023-05-08T06:15:13;3.67;;;1.55;;
41512;SDS011;27244;59.940;30.280;2023-05-08T06:17:44;2.55;;;1.40;;
41512;SDS011;27244;59.940;30.280;2023-05-08T06:20:11;3.05;;;1.42;;
41512;SDS011;27244;59.940;30.280;2023-05-08T06:22:39;1.67;;;1.05;;
41512;SDS011;27244;59.940;30.280;2023-05-08T06:25:06;2.17;;;1.15;;
41512;SDS011;27244;59.940;30.280;2023-05-08T06:27:34;2.35;;;1.10;;
41512;SDS011;27244;59.940;30.280;2023-05-08T06:30:02;3.08;;;1.73;;
41512;SDS011;27244;59.940;30.280;2023-05-08T06:32:32;2.35;;;0.98;;
41512;SDS011;27244;59.940;30.280;2023-05-08T06:34:59;2.60;;;1.30;;
41512;SDS011;27244;59.940;30.280;2023-05-08T06:37:26;2.97;;;1.20;;
41512;SDS011;27244;59.940;30.280;2023-05-08T06:39:53;2.85;;;1.20;;
41512;SDS011;27244;59.940;30.280;2023-05-08T06:42:22;3.10;;;1.20;;
41512;SDS011;27244;59.940;30.280;2023-05-08T06:44:49;2.95;;;1.10;;
41512;SDS011;27244;59.940;30.280;2023-05-08T06:47:19;2.58;;;1.00;;
41512;SDS011;27244;59.940;30.280;2023-05-08T06:49:47;1.58;;;0.88;;
41512;SDS011;27244;59.940;30.280;2023-05-08T06:52:14;3.78;;;1.13;;
41512;SDS011;27244;59.940;30.280;2023-05-08T06:54:41;3.22;;;1.02;;
41512;SDS011;27244;59.940;30.280;2023-05-08T06:57:08;2.85;;;1.30;;
41512;SDS011;27244;59.940;30.280;2023-05-08T06:59:36;2.08;;;1.20;;
41512;SDS011;27244;59.940;30.280;2023-05-08T07:02:02;2.42;;;1.10;;
41512;SDS011;27244;59.940;30.280;2023-05-08T07:04:31;13.68;;;1.63;;
41512;SDS011;27244;59.940;30.280;2023-05-08T07:06:58;4.28;;;0.90;;
41512;SDS011;27244;59.940;30.280;2023-05-08T07:09:24;3.22;;;1.25;;
41512;SDS011;27244;59.940;30.280;2023-05-08T07:11:51;1.25;;;1.15;;
41512;SDS011;27244;59.940;30.280;2023-05-08T07:14:32;2.22;;;0.95;;
41512;SDS011;27244;59.940;30.280;2023-05-08T07:17:20;4.03;;;2.00;;
41512;SDS011;27244;59.940;30.280;2023-05-08T07:19:50;2.08;;;1.00;;
41512;SDS011;27244;59.940;30.280;2023-05-08T07:22:17;9.65;;;1.30;;
41512;SDS011;27244;59.940;30.280;2023-05-08T07:24:44;4.00;;;1.10;;
41512;SDS011;27244;59.940;30.280;2023-05-08T07:27:11;3.38;;;1.10;;
41512;SDS011;27244;59.940;30.280;2023-05-08T07:29:39;2.03;;;1.08;;
41512;SDS011;27244;59.940;30.280;2023-05-08T07:32:09;6.22;;;1.60;;
41512;SDS011;27244;59.940;30.280;2023-05-08T07:34:37;2.53;;;0.95;;
41512;SDS011;27244;59.940;30.280;2023-05-08T07:37:05;2.20;;;1.05;;
41512;SDS011;27244;59.940;30.280;2023-05-08T07:39:33;4.00;;;1.17;;
41512;SDS011;27244;59.940;30.280;2023-05-08T07:41:59;4.32;;;1.20;;
41512;SDS011;27244;59.940;30.280;2023-05-08T07:44:26;3.20;;;1.20;;
41512;SDS011;27244;59.940;30.280;2023-05-08T07:46:53;1.42;;;0.82;;
41512;SDS011;27244;59.940;30.280;2023-05-08T07:49:20;2.22;;;1.00;;
41512;SDS011;27244;59.940;30.280;2023-05-08T07:51:47;6.30;;;1.65;;
41512;SDS011;27244;59.940;30.280;2023-05-08T07:54:15;2.65;;;1.00;;
41512;SDS011;27244;59.940;30.280;2023-05-08T07:56:42;2.40;;;0.90;;
41512;SDS011;27244;59.940;30.280;2023-05-08T07:59:09;3.08;;;1.20;;
41512;SDS011;27244;59.940;30.280;2023-05-08T08:01:36;2.78;;;1.10;;
41512;SDS011;27244;59.940;30.280;2023-05-08T08:04:06;2.72;;;1.08;;
41512;SDS011;27244;59.940;30.280;2023-05-08T08:06:33;2.47;;;1.10;;
41512;SDS011;27244;59.940;30.280;2023-05-08T08:09:00;0.93;;;0.70;;
41512;SDS011;27244;59.940;30.280;2023-05-08T08:11:29;2.28;;;0.93;;
41512;SDS011;27244;59.940;30.280;2023-05-08T08:13:55;3.70;;;1.10;;
41512;SDS011;27244;59.940;30.280;2023-05-08T08:16:22;3.38;;;1.40;;
41512;SDS011;27244;59.940;30.280;2023-05-08T08:18:55;2.13;;;1.13;;
41512;SDS011;27244;59.940;30.280;2023-05-08T08:21:30;2.90;;;1.08;;
41512;SDS011;27244;59.940;30.280;2023-05-08T08:24:08;1.65;;;0.95;;
41512;SDS011;27244;59.940;30.280;2023-05-08T08:26:37;1.60;;;0.80;;
41512;SDS011;27244;59.940;30.280;2023-05-08T08:29:14;2.25;;;0.90;;
41512;SDS011;27244;59.940;30.280;2023-05-08T08:32:07;1.92;;;1.05;;
41512;SDS011;27244;59.940;30.280;2023-05-08T08:34:42;1.35;;;0.90;;
41512;SDS011;27244;59.940;30.280;2023-05-08T08:37:15;1.42;;;0.98;;
41512;SDS011;27244;59.940;30.280;2023-05-08T08:39:47;2.47;;;1.00;;
41512;SDS011;27244;59.940;30.280;2023-05-08T08:42:20;1.83;;;0.93;;
41512;SDS011;27244;59.940;30.280;2023-05-08T08:44:47;1.20;;;0.60;;
41512;SDS011;27244;59.940;30.280;2023-05-08T08:47:17;2.17;;;0.90;;
41512;SDS011;27244;59.940;30.280;2023-05-08T08:50:02;2.97;;;1.10;;
41512;SDS011;27244;59.940;30.280;2023-05-08T08:52:51;0.93;;;0.70;;
41512;SDS011;27244;59.940;30.280;2023-05-08T08:55:38;2.00;;;0.98;;
41512;SDS011;27244;59.940;30.280;2023-05-08T08:58:23;2.30;;;0.85;;
41512;SDS011;27244;59.940;30.280;2023-05-08T09:00:57;2.72;;;0.80;;
41512;SDS011;27244;59.940;30.280;2023-05-08T09:03:25;1.77;;;0.80;;
41512;SDS011;27244;59.940;30.280;2023-05-08T09:05:53;2.13;;;0.82;;
41512;SDS011;27244;59.940;30.280;2023-05-08T09:08:20;4.68;;;0.90;;
41512;SDS011;27244;59.940;30.280;2023-05-08T09:10:47;1.75;;;0.85;;
41512;SDS011;27244;59.940;30.280;2023-05-08T09:13:14;1.75;;;0.70;;
41512;SDS011;27244;59.940;30.280;2023-05-08T09:15:44;2.13;;;0.63;;
41512;SDS011;27244;59.940;30.280;2023-05-08T09:18:11;1.15;;;0.63;;
41512;SDS011;27244;59.940;30.280;2023-05-08T09:20:39;1.08;;;0.57;;
41512;SDS011;27244;59.940;30.280;2023-05-08T09:23:06;2.85;;;1.17;;
41512;SDS011;27244;59.940;30.280;2023-05-08T09:25:40;1.48;;;0.88;;
41512;SDS011;27244;59.940;30.280;2023-05-08T09:28:14;2.15;;;0.82;;
41512;SDS011;27244;59.940;30.280;2023-05-08T09:30:48;1.30;;;0.80;;
41512;SDS011;27244;59.940;30.280;2023-05-08T09:33:16;1.67;;;0.65;;
41512;SDS011;27244;59.940;30.280;2023-05-08T09:35:43;0.70;;;0.60;;
41512;SDS011;27244;59.940;30.280;2023-05-08T09:41:07;1.00;;;0.60;;
41512;SDS011;27244;59.940;30.280;2023-05-08T09:43:35;2.45;;;0.80;;
41512;SDS011;27244;59.940;30.280;2023-05-08T09:48:55;1.77;;;0.82;;
41512;SDS011;27244;59.940;30.280;2023-05-08T09:51:23;1.75;;;0.65;;
41512;SDS011;27244;59.940;30.280;2023-05-08T09:53:51;1.58;;;1.13;;
41512;SDS011;27244;59.940;30.280;2023-05-08T09:56:34;4.85;;;0.98;;
41512;SDS011;27244;59.940;30.280;2023-05-08T09:59:03;2.10;;;0.90;;
41512;SDS011;27244;59.940;30.280;2023-05-08T10:01:48;2.75;;;1.17;;
41512;SDS011;27244;59.940;30.280;2023-05-08T10:04:15;3.47;;;0.90;;
41512;SDS011;27244;59.940;30.280;2023-05-08T10:06:42;6.25;;;1.20;;
41512;SDS011;27244;59.940;30.280;2023-05-08T10:09:09;12.05;;;1.40;;
41512;SDS011;27244;59.940;30.280;2023-05-08T10:11:37;6.60;;;1.15;;
41512;SDS011;27244;59.940;30.280;2023-05-08T10:14:05;2.63;;;1.00;;
41512;SDS011;27244;59.940;30.280;2023-05-08T10:16:35;3.85;;;1.10;;
41512;SDS011;27244;59.940;30.280;2023-05-08T10:19:07;6.85;;;1.20;;
41512;SDS011;27244;59.940;30.280;2023-05-08T10:21:40;2.08;;;1.02;;
41512;SDS011;27244;59.940;30.280;2023-05-08T10:24:12;4.03;;;1.30;;
41512;SDS011;27244;59.940;30.280;2023-05-08T10:26:41;4.30;;;0.80;;
41512;SDS011;27244;59.940;30.280;2023-05-08T10:29:16;1.65;;;0.68;;
41512;SDS011;27244;59.940;30.280;2023-05-08T10:31:46;4.93;;;1.15;;
41512;SDS011;27244;59.940;30.280;2023-05-08T10:34:21;2.63;;;0.90;;
41512;SDS011;27244;59.940;30.280;2023-05-08T10:36:49;5.78;;;1.10;;
41512;SDS011;27244;59.940;30.280;2023-05-08T10:39:17;3.83;;;1.00;;
41512;SDS011;27244;59.940;30.280;2023-05-08T10:41:45;3.15;;;0.63;;
41512;SDS011;27244;59.940;30.280;2023-05-08T10:44:13;2.45;;;0.95;;
41512;SDS011;27244;59.940;30.280;2023-05-08T10:46:43;3.00;;;0.90;;
41512;SDS011;27244;59.940;30.280;2023-05-08T10:49:21;2.33;;;0.80;;
41512;SDS011;27244;59.940;30.280;2023-05-08T10:52:00;3.20;;;0.90;;
41512;SDS011;27244;59.940;30.280;2023-05-08T10:54:37;2.40;;;1.15;;
41512;SDS011;27244;59.940;30.280;2023-05-08T10:59:44;3.22;;;1.02;;
41512;SDS011;27244;59.940;30.280;2023-05-08T11:02:12;3.17;;;0.80;;
41512;SDS011;27244;59.940;30.280;2023-05-08T11:04:42;2.42;;;0.82;;
41512;SDS011;27244;59.940;30.280;2023-05-08T11:07:09;1.60;;;0.65;;
41512;SDS011;27244;59.940;30.280;2023-05-08T11:09:45;1.38;;;0.85;;
41512;SDS011;27244;59.940;30.280;2023-05-08T11:12:19;3.88;;;1.30;;
41512;SDS011;27244;59.940;30.280;2023-05-08T11:14:53;2.53;;;0.80;;
41512;SDS011;27244;59.940;30.280;2023-05-08T11:17:25;2.38;;;0.60;;
41512;SDS011;27244;59.940;30.280;2023-05-08T11:19:57;3.30;;;0.80;;
41512;SDS011;27244;59.940;30.280;2023-05-08T11:22:26;1.98;;;0.70;;
41512;SDS011;27244;59.940;30.280;2023-05-08T11:24:58;2.67;;;0.70;;
41512;SDS011;27244;59.940;30.280;2023-05-08T11:27:30;1.38;;;0.70;;
41512;SDS011;27244;59.940;30.280;2023-05-08T11:32:57;2.25;;;0.60;;
41512;SDS011;27244;59.940;30.280;2023-05-08T11:35:42;1.67;;;0.70;;
41512;SDS011;27244;59.940;30.280;2023-05-08T11:38:13;2.20;;;0.80;;
41512;SDS011;27244;59.940;30.280;2023-05-08T11:40:45;2.67;;;0.77;;
41512;SDS011;27244;59.940;30.280;2023-05-08T11:43:40;1.63;;;0.70;;
41512;SDS011;27244;59.940;30.280;2023-05-08T11:46:29;1.63;;;0.80;;
41512;SDS011;27244;59.940;30.280;2023-05-08T11:49:01;1.98;;;0.80;;
41512;SDS011;27244;59.940;30.280;2023-05-08T11:51:30;1.73;;;0.90;;
41512;SDS011;27244;59.940;30.280;2023-05-08T11:53:58;1.60;;;0.90;;
41512;SDS011;27244;59.940;30.280;2023-05-08T11:56:25;2.30;;;0.77;;
41512;SDS011;27244;59.940;30.280;2023-05-08T11:59:00;2.58;;;0.88;;
41512;SDS011;27244;59.940;30.280;2023-05-08T12:01:29;2.70;;;1.20;;
41512;SDS011;27244;59.940;30.280;2023-05-08T12:04:00;0.70;;;0.60;;
41512;SDS011;27244;59.940;30.280;2023-05-08T12:08:57;1.20;;;0.50;;
41512;SDS011;27244;59.940;30.280;2023-05-08T12:11:24;1.13;;;0.70;;
41512;SDS011;27244;59.940;30.280;2023-05-08T12:13:52;2.20;;;0.95;;
41512;SDS011;27244;59.940;30.280;2023-05-08T12:16:21;1.90;;;0.60;;
41512;SDS011;27244;59.940;30.280;2023-05-08T12:18:48;1.05;;;0.70;;
41512;SDS011;27244;59.940;30.280;2023-05-08T12:21:16;1.58;;;0.60;;
41512;SDS011;27244;59.940;30.280;2023-05-08T12:23:43;1.75;;;0.70;;
41512;SDS011;27244;59.940;30.280;2023-05-08T12:26:11;1.30;;;0.60;;
41512;SDS011;27244;59.940;30.280;2023-05-08T12:28:39;4.25;;;1.17;;
41512;SDS011;27244;59.940;30.280;2023-05-08T12:31:06;3.05;;;0.80;;
41512;SDS011;27244;59.940;30.280;2023-05-08T12:33:33;2.15;;;0.60;;
41512;SDS011;27244;59.940;30.280;2023-05-08T12:36:00;1.52;;;0.80;;
41512;SDS011;27244;59.940;30.280;2023-05-08T12:38:27;1.67;;;0.80;;
41512;SDS011;27244;59.940;30.280;2023-05-08T12:40:54;2.70;;;0.80;;
41512;SDS011;27244;59.940;30.280;2023-05-08T12:43:31;2.45;;;0.80;;
41512;SDS011;27244;59.940;30.280;2023-05-08T12:45:58;2.53;;;1.10;;
41512;SDS011;27244;59.940;30.280;2023-05-08T12:48:27;2.90;;;0.98;;
41512;SDS011;27244;59.940;30.280;2023-05-08T12:50:54;1.27;;;0.80;;
41512;SDS011;27244;59.940;30.280;2023-05-08T12:53:28;1.95;;;1.00;;
41512;SDS011;27244;59.940;30.280;2023-05-08T12:55:57;1.55;;;0.70;;
41512;SDS011;27244;59.940;30.280;2023-05-08T12:58:26;2.17;;;0.80;;
41512;SDS011;27244;59.940;30.280;2023-05-08T13:01:03;1.77;;;0.60;;
41512;SDS011;27244;59.940;30.280;2023-05-08T13:03:34;0.93;;;0.60;;
41512;SDS011;27244;59.940;30.280;2023-05-08T13:06:02;1.20;;;0.70;;
41512;SDS011;27244;59.940;30.280;2023-05-08T13:08:29;1.85;;;0.70;;
41512;SDS011;27244;59.940;30.280;2023-05-08T13:10:57;1.88;;;0.90;;
41512;SDS011;27244;59.940;30.280;2023-05-08T13:13:24;1.50;;;0.77;;
41512;SDS011;27244;59.940;30.280;2023-05-08T13:15:53;1.98;;;0.80;;
41512;SDS011;27244;59.940;30.280;2023-05-08T13:18:22;2.67;;;0.70;;
41512;SDS011;27244;59.940;30.280;2023-05-08T13:20:50;1.10;;;0.70;;
41512;SDS011;27244;59.940;30.280;2023-05-08T13:23:17;1.40;;;0.60;;
41512;SDS011;27244;59.940;30.280;2023-05-08T13:25:44;2.35;;;0.68;;
41512;SDS011;27244;59.940;30.280;2023-05-08T13:28:11;0.80;;;0.50;;
41512;SDS011;27244;59.940;30.280;2023-05-08T13:30:38;1.17;;;0.70;;
41512;SDS011;27244;59.940;30.280;2023-05-08T13:33:05;2.28;;;0.70;;
41512;SDS011;27244;59.940;30.280;2023-05-08T13:35:34;2.40;;;0.60;;
41512;SDS011;27244;59.940;30.280;2023-05-08T13:38:02;4.55;;;0.85;;
41512;SDS011;27244;59.940;30.280;2023-05-08T13:40:29;3.90;;;0.60;;
41512;SDS011;27244;59.940;30.280;2023-05-08T13:42:56;2.78;;;0.70;;
41512;SDS011;27244;59.940;30.280;2023-05-08T13:45:23;1.02;;;0.60;;
41512;SDS011;27244;59.940;30.280;2023-05-08T13:47:50;0.75;;;0.55;;
41512;SDS011;27244;59.940;30.280;2023-05-08T13:50:17;1.35;;;0.60;;
41512;SDS011;27244;59.940;30.280;2023-05-08T13:52:47;2.63;;;0.77;;
41512;SDS011;27244;59.940;30.280;2023-05-08T13:55:14;0.90;;;0.65;;
41512;SDS011;27244;59.940;30.280;2023-05-08T13:57:44;6.65;;;0.80;;
41512;SDS011;27244;59.940;30.280;2023-05-08T14:00:12;2.47;;;0.80;;
41512;SDS011;27244;59.940;30.280;2023-05-08T14:02:39;1.52;;;0.70;;
41512;SDS011;27244;59.940;30.280;2023-05-08T14:05:06;3.35;;;0.70;;
41512;SDS011;27244;59.940;30.280;2023-05-08T14:07:34;2.05;;;0.90;;
41512;SDS011;27244;59.940;30.280;2023-05-08T14:10:02;3.00;;;0.57;;
41512;SDS011;27244;59.940;30.280;2023-05-08T14:12:30;3.22;;;0.70;;
41512;SDS011;27244;59.940;30.280;2023-05-08T14:15:00;3.40;;;0.90;;
41512;SDS011;27244;59.940;30.280;2023-05-08T14:17:28;5.82;;;0.68;;
41512;SDS011;27244;59.940;30.280;2023-05-08T14:19:54;1.35;;;0.70;;
41512;SDS011;27244;59.940;30.280;2023-05-08T14:22:21;4.07;;;0.90;;
41512;SDS011;27244;59.940;30.280;2023-05-08T14:24:48;2.13;;;0.68;;
41512;SDS011;27244;59.940;30.280;2023-05-08T14:27:17;0.90;;;0.40;;
41512;SDS011;27244;59.940;30.280;2023-05-08T14:29:44;4.15;;;1.35;;
41512;SDS011;27244;59.940;30.280;2023-05-08T14:32:11;1.65;;;0.68;;
41512;SDS011;27244;59.940;30.280;2023-05-08T14:34:37;1.10;;;0.57;;
41512;SDS011;27244;59.940;30.280;2023-05-08T14:37:04;1.83;;;0.77;;
41512;SDS011;27244;59.940;30.280;2023-05-08T14:39:31;2.35;;;0.80;;
41512;SDS011;27244;59.940;30.280;2023-05-08T14:41:59;2.25;;;0.60;;
41512;SDS011;27244;59.940;30.280;2023-05-08T14:44:28;1.05;;;0.50;;
41512;SDS011;27244;59.940;30.280;2023-05-08T14:46:55;4.20;;;0.65;;
41512;SDS011;27244;59.940;30.280;2023-05-08T14:49:22;1.30;;;0.65;;
41512;SDS011;27244;59.940;30.280;2023-05-08T14:51:49;3.05;;;0.60;;
41512;SDS011;27244;59.940;30.280;2023-05-08T14:54:16;1.63;;;0.68;;
41512;SDS011;27244;59.940;30.280;2023-05-08T14:56:44;2.05;;;0.60;;
41512;SDS011;27244;59.940;30.280;2023-05-08T14:59:11;1.02;;;0.40;;
41512;SDS011;27244;59.940;30.280;2023-05-08T15:01:39;1.33;;;0.52;;
41512;SDS011;27244;59.940;30.280;2023-05-08T15:04:07;3.58;;;0.95;;
41512;SDS011;27244;59.940;30.280;2023-05-08T15:06:35;1.88;;;0.80;;
41512;SDS011;27244;59.940;30.280;2023-05-08T15:09:05;1.35;;;0.57;;
41512;SDS011;27244;59.940;30.280;2023-05-08T15:11:33;2.78;;;0.47;;
41512;SDS011;27244;59.940;30.280;2023-05-08T15:14:00;3.42;;;0.45;;
41512;SDS011;27244;59.940;30.280;2023-05-08T15:16:28;8.82;;;1.15;;